Cecilia, Kentucky
Current Conditions -  °F | °C
As of 1:58 PM on Friday 24 Oct 2014 (Local Time) from KFTK Reporting Station
Broken Clouds Broken Clouds  
Wind Chill: 63°   Ceiling: 4100
Heat Index: 63°   Visibility: 10mi
Dew Point: 43°   Wind: 6mph
Humidity: 48%   Direction: 210°SSW
Pressure: 30.08"   Gusts: NA
Location:  37.67°N, 85.96°W
Report Text: KFTK 241758Z AUTO 21005KT 10SM BKN041 17/06 A3008 RMK AO2 SLP189 58014
Loading
Personal Weather Stations






























Interactive Weather Map
Tropical Storm Tracking
New forecast layout! Learn more

10-Day Weather Forecast

Advertisements
Track Severe Weather on mobile